createdAt,value
2022-09-29T00:00:44.918Z,8.01
2022-09-29T00:06:09.405Z,8.00
2022-09-29T00:11:01.347Z,8.00
2022-09-29T00:16:01.354Z,7.98
2022-09-29T00:21:01.220Z,7.95
2022-09-29T00:26:01.117Z,7.88
2022-09-29T00:31:01.084Z,7.85
2022-09-29T00:36:00.996Z,7.85
2022-09-29T00:41:01.002Z,7.82
2022-09-29T00:46:00.918Z,7.82
2022-09-29T00:51:00.819Z,7.75
2022-09-29T00:56:00.745Z,7.75
2022-09-29T01:01:00.758Z,7.66
2022-09-29T01:06:00.650Z,7.58
2022-09-29T01:11:00.550Z,7.51
2022-09-29T01:16:00.499Z,7.43
2022-09-29T01:21:00.398Z,7.32
2022-09-29T01:26:00.333Z,7.24
2022-09-29T01:31:00.358Z,7.18
2022-09-29T01:36:00.208Z,7.10
2022-09-29T01:41:00.225Z,7.00
2022-09-29T01:46:00.178Z,6.95
2022-09-29T01:51:00.007Z,6.93
2022-09-29T01:55:59.976Z,6.88
2022-09-29T02:00:59.883Z,6.84
2022-09-29T02:05:59.826Z,6.74
2022-09-29T02:10:59.803Z,6.75
2022-09-29T02:15:59.718Z,6.70
2022-09-29T02:20:59.688Z,6.66
2022-09-29T02:25:59.531Z,6.60
2022-09-29T02:30:59.520Z,6.56
2022-09-29T02:35:59.411Z,6.46
2022-09-29T02:40:59.385Z,6.49
2022-09-29T02:45:59.349Z,6.42
2022-09-29T02:50:59.227Z,6.39
2022-09-29T02:55:59.151Z,6.28
2022-09-29T03:00:59.111Z,6.27
2022-09-29T03:05:59.046Z,6.27
2022-09-29T03:10:58.962Z,6.35
2022-09-29T03:15:58.982Z,6.35
2022-09-29T03:20:58.821Z,6.39
2022-09-29T03:25:58.764Z,6.45
2022-09-29T03:30:58.694Z,6.49
2022-09-29T03:35:58.626Z,6.60
2022-09-29T03:40:58.593Z,6.66
2022-09-29T03:45:58.515Z,6.75
2022-09-29T03:50:58.437Z,6.79
2022-09-29T03:55:58.350Z,6.89
2022-09-29T04:00:58.335Z,6.92
2022-09-29T04:05:58.227Z,6.93
2022-09-29T04:10:58.176Z,6.96
2022-09-29T04:16:07.089Z,6.89
2022-09-29T04:20:59.973Z,6.88
2022-09-29T04:25:59.935Z,6.87
2022-09-29T04:31:00.808Z,6.87
2022-09-29T04:36:00.752Z,6.84
2022-09-29T04:40:59.829Z,6.84
2022-09-29T04:46:00.085Z,6.81
2022-09-29T04:50:59.616Z,6.72
2022-09-29T04:56:01.798Z,6.69
2022-09-29T05:00:59.533Z,6.62
2022-09-29T05:05:59.391Z,6.60
2022-09-29T05:10:59.343Z,6.63
2022-09-29T05:16:00.281Z,6.63
2022-09-29T05:21:16.171Z,6.62
2022-09-29T05:26:01.088Z,6.67
2022-09-29T05:30:59.072Z,6.78
2022-09-29T05:35:59.971Z,6.74
2022-09-29T05:40:59.120Z,6.66
2022-09-29T05:45:58.898Z,6.64
2022-09-29T05:50:58.811Z,6.59
2022-09-29T05:55:58.731Z,6.62
2022-09-29T06:00:59.592Z,6.69
2022-09-29T06:05:58.710Z,6.69
2022-09-29T06:10:58.571Z,6.72
2022-09-29T06:15:58.501Z,6.72
2022-09-29T06:20:58.439Z,6.84
2022-09-29T06:25:58.354Z,6.88
2022-09-29T06:30:58.302Z,6.75
2022-09-29T06:35:58.317Z,6.85
2022-09-29T06:40:58.208Z,6.70
2022-09-29T06:45:58.159Z,6.66
2022-09-29T06:51:08.356Z,6.74
2022-09-29T06:55:58.980Z,6.78
2022-09-29T07:00:58.652Z,6.70
2022-09-29T07:06:18.276Z,6.67
2022-09-29T07:10:58.776Z,6.70
2022-09-29T07:15:58.233Z,6.79
2022-09-29T07:20:57.630Z,6.95
2022-09-29T07:25:57.559Z,7.05
2022-09-29T07:31:07.593Z,7.02
2022-09-29T07:35:58.433Z,7.14
2022-09-29T07:40:57.419Z,7.20
2022-09-29T07:45:57.365Z,7.45
2022-09-29T07:50:57.237Z,7.73
2022-09-29T07:55:57.176Z,7.91
2022-09-29T08:00:57.165Z,7.98
2022-09-29T08:05:57.064Z,8.18
2022-09-29T08:10:56.975Z,8.37
2022-09-29T08:15:56.931Z,8.46
2022-09-29T08:20:59.938Z,8.52
2022-09-29T08:26:01.703Z,8.84
2022-09-29T08:30:59.851Z,8.79
2022-09-29T08:35:57.672Z,8.66
2022-09-29T08:40:56.692Z,8.36
2022-09-29T08:46:00.946Z,8.33
2022-09-29T08:50:56.439Z,8.46
2022-09-29T08:55:56.737Z,8.71
2022-09-29T09:00:56.368Z,8.97
2022-09-29T09:05:56.247Z,9.32
2022-09-29T09:10:56.183Z,9.66
2022-09-29T09:15:56.147Z,9.84
2022-09-29T09:20:56.074Z,9.99
2022-09-29T09:25:56.026Z,10.09
2022-09-29T09:30:56.029Z,10.44
2022-09-29T09:35:58.969Z,10.94
2022-09-29T09:40:55.823Z,12.18
2022-09-29T09:45:55.747Z,12.58
2022-09-29T09:50:55.697Z,12.42
2022-09-29T09:55:55.607Z,12.72
2022-09-29T10:00:55.565Z,13.47
2022-09-29T10:05:55.460Z,13.56
2022-09-29T10:10:59.595Z,14.04
2022-09-29T10:15:55.350Z,16.09
2022-09-29T10:20:55.255Z,18.05
2022-09-29T10:25:55.233Z,19.79
2022-09-29T10:30:55.192Z,20.18
2022-09-29T10:35:55.064Z,20.63
2022-09-29T10:40:55.197Z,20.50
2022-09-29T10:45:55.036Z,19.58
2022-09-29T10:50:55.027Z,19.56
2022-09-29T10:55:54.796Z,19.30
2022-09-29T11:00:54.774Z,20.47
2022-09-29T11:05:54.789Z,21.66
2022-09-29T11:10:54.578Z,22.63
2022-09-29T11:15:54.931Z,22.62
2022-09-29T11:20:54.452Z,23.31
2022-09-29T11:25:54.414Z,23.50
2022-09-29T11:30:54.424Z,24.08
2022-09-29T11:35:54.280Z,24.39
2022-09-29T11:40:54.247Z,24.02
2022-09-29T11:45:54.170Z,24.20
2022-09-29T11:50:54.092Z,24.08
2022-09-29T11:55:54.021Z,23.81
2022-09-29T12:00:53.894Z,23.05
2022-09-29T12:05:53.964Z,22.47
2022-09-29T12:10:53.800Z,21.76
2022-09-29T12:15:54.775Z,22.65
2022-09-29T12:20:53.758Z,22.10
2022-09-29T12:25:53.596Z,21.51
2022-09-29T12:30:53.614Z,20.97
2022-09-29T12:35:53.562Z,20.34
2022-09-29T12:40:53.387Z,19.00
2022-09-29T12:45:53.397Z,17.89
2022-09-29T12:50:53.253Z,17.29
2022-09-29T12:55:53.186Z,16.96
2022-09-29T13:00:53.146Z,16.78
2022-09-29T13:05:53.065Z,16.69
2022-09-29T13:10:53.051Z,16.75
2022-09-29T13:15:53.027Z,16.91
2022-09-29T13:20:52.883Z,17.20
2022-09-29T13:25:52.798Z,17.04
2022-09-29T13:30:52.777Z,16.69
2022-09-29T13:35:52.715Z,16.49
2022-09-29T13:40:52.596Z,16.28
2022-09-29T13:45:52.603Z,16.00
2022-09-29T13:50:52.476Z,15.82
2022-09-29T13:55:52.404Z,15.58
2022-09-29T14:00:52.339Z,15.46
2022-09-29T14:05:52.314Z,15.37
2022-09-29T14:10:52.233Z,15.35
2022-09-29T14:15:52.214Z,15.24
2022-09-29T14:20:52.127Z,15.06
2022-09-29T14:25:52.038Z,14.88
2022-09-29T14:30:52.110Z,14.84
2022-09-29T14:35:51.857Z,14.85
2022-09-29T14:40:51.909Z,14.88
2022-09-29T14:45:51.762Z,14.81
2022-09-29T14:50:51.677Z,14.55
2022-09-29T14:55:51.626Z,14.20
2022-09-29T15:00:51.565Z,13.97
2022-09-29T15:05:51.703Z,13.79
2022-09-29T15:10:51.412Z,13.83
2022-09-29T15:15:51.384Z,13.87
2022-09-29T15:20:51.263Z,13.74
2022-09-29T15:25:51.259Z,13.68
2022-09-29T15:30:51.506Z,13.65
2022-09-29T15:35:51.152Z,13.49
2022-09-29T15:40:51.003Z,13.41
2022-09-29T15:45:51.047Z,13.37
2022-09-29T15:50:50.900Z,13.35
2022-09-29T15:55:50.805Z,13.20
2022-09-29T16:00:52.398Z,13.03
2022-09-29T16:05:50.746Z,12.85
2022-09-29T16:10:50.700Z,12.76
2022-09-29T16:15:50.685Z,12.70
2022-09-29T16:20:50.477Z,12.70
2022-09-29T16:25:50.424Z,12.64
2022-09-29T16:30:50.381Z,12.61
2022-09-29T16:35:50.282Z,12.55
2022-09-29T16:40:50.208Z,12.47
2022-09-29T16:45:50.204Z,12.40
2022-09-29T16:50:50.067Z,12.21
2022-09-29T16:55:50.009Z,12.00
2022-09-29T17:00:50.011Z,11.97
2022-09-29T17:05:49.905Z,11.91
2022-09-29T17:10:49.815Z,11.80
2022-09-29T17:15:49.793Z,11.63
2022-09-29T17:20:49.671Z,11.50
2022-09-29T17:25:49.662Z,11.40
2022-09-29T17:30:49.571Z,11.29
2022-09-29T17:35:51.577Z,11.17
2022-09-29T17:40:50.424Z,11.05
2022-09-29T17:45:49.366Z,10.96
2022-09-29T17:50:49.304Z,10.93
2022-09-29T17:55:49.264Z,10.89
2022-09-29T18:00:49.195Z,10.78
2022-09-29T18:05:49.283Z,10.60
2022-09-29T18:10:49.048Z,10.49
2022-09-29T18:15:49.196Z,10.37
2022-09-29T18:20:48.893Z,10.25
2022-09-29T18:25:48.839Z,10.10
2022-09-29T18:30:48.873Z,10.02
2022-09-29T18:35:48.709Z,9.97
2022-09-29T18:40:48.628Z,9.86
2022-09-29T18:45:48.584Z,9.76
2022-09-29T18:50:48.503Z,9.73
2022-09-29T18:55:48.421Z,9.69
2022-09-29T19:00:48.382Z,9.66
2022-09-29T19:05:48.302Z,9.62
2022-09-29T19:10:48.244Z,9.54
2022-09-29T19:15:48.240Z,9.43
2022-09-29T19:20:48.111Z,9.32
2022-09-29T19:25:48.017Z,9.23
2022-09-29T19:30:48.061Z,9.21
2022-09-29T19:35:47.888Z,9.18
2022-09-29T19:40:47.880Z,9.10
2022-09-29T19:45:47.804Z,9.06
2022-09-29T19:50:47.720Z,9.08
2022-09-29T19:55:47.661Z,9.10
2022-09-29T20:00:47.647Z,9.08
2022-09-29T20:05:47.517Z,9.10
2022-09-29T20:10:47.411Z,9.02
2022-09-29T20:15:47.479Z,8.99
2022-09-29T20:20:47.300Z,8.82
2022-09-29T20:25:47.240Z,8.71
2022-09-29T20:30:47.343Z,8.58
2022-09-29T20:35:47.159Z,8.48
2022-09-29T20:40:47.111Z,8.45
2022-09-29T20:45:47.094Z,8.31
2022-09-29T20:50:46.926Z,8.15
2022-09-29T20:55:46.850Z,8.10
2022-09-29T21:00:46.804Z,8.12
2022-09-29T21:05:46.715Z,8.09
2022-09-29T21:10:46.777Z,8.09
2022-09-29T21:15:46.687Z,8.10
2022-09-29T21:20:46.537Z,8.13
2022-09-29T21:25:46.536Z,8.18
2022-09-29T21:30:46.385Z,8.13
2022-09-29T21:35:46.334Z,8.08
2022-09-29T21:40:46.309Z,8.06
2022-09-29T21:45:46.183Z,8.06
2022-09-29T21:50:46.122Z,7.98
2022-09-29T21:55:46.064Z,7.90
2022-09-29T22:00:46.010Z,7.82
2022-09-29T22:05:45.900Z,7.80
2022-09-29T22:10:45.863Z,7.73
2022-09-29T22:15:45.842Z,7.61
2022-09-29T22:20:45.825Z,7.50
2022-09-29T22:25:45.679Z,7.40
2022-09-29T22:30:45.617Z,7.39
2022-09-29T22:35:45.586Z,7.35
2022-09-29T22:40:45.485Z,7.31
2022-09-29T22:45:45.403Z,7.29
2022-09-29T22:50:45.360Z,7.21
2022-09-29T22:55:45.303Z,7.13
2022-09-29T23:00:45.217Z,7.10
2022-09-29T23:05:45.215Z,7.07
2022-09-29T23:10:45.111Z,6.99
2022-09-29T23:15:45.055Z,6.96
2022-09-29T23:20:44.931Z,6.92
2022-09-29T23:25:44.929Z,6.93
2022-09-29T23:30:44.883Z,6.87
2022-09-29T23:35:44.745Z,6.81
2022-09-29T23:40:44.692Z,6.74
2022-09-29T23:45:44.594Z,6.78
2022-09-29T23:50:44.532Z,6.72
2022-09-29T23:55:44.508Z,6.74
